sensor_id;sensor_type;location;lat;lon;timestamp;temperature;humidity
41928;DHT22;27616;51.420;6.788;2023-09-30T00:02:22;11.90;99.90
41928;DHT22;27616;51.420;6.788;2023-09-30T00:04:48;11.90;99.90
41928;DHT22;27616;51.420;6.788;2023-09-30T00:07:13;11.90;99.90
41928;DHT22;27616;51.420;6.788;2023-09-30T00:09:39;12.00;99.90
41928;DHT22;27616;51.420;6.788;2023-09-30T00:12:05;12.00;99.90
41928;DHT22;27616;51.420;6.788;2023-09-30T00:14:31;12.10;99.90
41928;DHT22;27616;51.420;6.788;2023-09-30T00:16:57;12.10;99.90
41928;DHT22;27616;51.420;6.788;2023-09-30T00:19:23;12.00;99.90
41928;DHT22;27616;51.420;6.788;2023-09-30T00:21:49;12.00;99.90
41928;DHT22;27616;51.420;6.788;2023-09-30T00:24:14;12.00;99.90
41928;DHT22;27616;51.420;6.788;2023-09-30T00:26:40;11.90;99.90
41928;DHT22;27616;51.420;6.788;2023-09-30T00:29:06;12.00;99.90
41928;DHT22;27616;51.420;6.788;2023-09-30T00:31:31;12.00;99.90
41928;DHT22;27616;51.420;6.788;2023-09-30T00:33:57;12.00;99.90
41928;DHT22;27616;51.420;6.788;2023-09-30T00:36:23;12.00;99.90
41928;DHT22;27616;51.420;6.788;2023-09-30T00:38:49;12.00;99.90
41928;DHT22;27616;51.420;6.788;2023-09-30T00:41:14;12.00;99.90
41928;DHT22;27616;51.420;6.788;2023-09-30T00:43:40;12.10;99.90
41928;DHT22;27616;51.420;6.788;2023-09-30T00:46:10;12.20;99.90
41928;DHT22;27616;51.420;6.788;2023-09-30T00:48:37;12.20;99.90
41928;DHT22;27616;51.420;6.788;2023-09-30T00:51:03;12.20;99.90
41928;DHT22;27616;51.420;6.788;2023-09-30T00:53:29;12.30;99.90
41928;DHT22;27616;51.420;6.788;2023-09-30T00:55:55;12.40;99.90
41928;DHT22;27616;51.420;6.788;2023-09-30T00:58:23;12.40;99.90
41928;DHT22;27616;51.420;6.788;2023-09-30T01:00:53;12.50;99.90
41928;DHT22;27616;51.420;6.788;2023-09-30T01:03:18;12.50;99.90
41928;DHT22;27616;51.420;6.788;2023-09-30T01:05:45;12.50;99.90
41928;DHT22;27616;51.420;6.788;2023-09-30T01:08:11;12.50;99.90
41928;DHT22;27616;51.420;6.788;2023-09-30T01:10:36;12.50;99.90
41928;DHT22;27616;51.420;6.788;2023-09-30T01:13:02;12.40;99.90
41928;DHT22;27616;51.420;6.788;2023-09-30T01:15:29;12.30;99.90
41928;DHT22;27616;51.420;6.788;2023-09-30T01:17:55;12.40;99.90
41928;DHT22;27616;51.420;6.788;2023-09-30T01:20:20;12.30;99.90
41928;DHT22;27616;51.420;6.788;2023-09-30T01:22:49;12.30;99.90
41928;DHT22;27616;51.420;6.788;2023-09-30T01:25:15;12.30;99.90
41928;DHT22;27616;51.420;6.788;2023-09-30T01:27:40;12.30;99.90
41928;DHT22;27616;51.420;6.788;2023-09-30T01:30:06;12.40;99.90
41928;DHT22;27616;51.420;6.788;2023-09-30T01:32:37;12.40;99.90
41928;DHT22;27616;51.420;6.788;2023-09-30T01:35:02;12.30;99.90
41928;DHT22;27616;51.420;6.788;2023-09-30T01:37:28;12.30;99.90
41928;DHT22;27616;51.420;6.788;2023-09-30T01:39:54;12.20;99.90
41928;DHT22;27616;51.420;6.788;2023-09-30T01:42:21;12.20;99.90
41928;DHT22;27616;51.420;6.788;2023-09-30T01:44:46;12.20;99.90
41928;DHT22;27616;51.420;6.788;2023-09-30T01:47:12;12.20;99.90
41928;DHT22;27616;51.420;6.788;2023-09-30T01:49:37;12.30;99.90
41928;DHT22;27616;51.420;6.788;2023-09-30T01:52:03;12.30;99.90
41928;DHT22;27616;51.420;6.788;2023-09-30T01:54:29;12.30;99.90
41928;DHT22;27616;51.420;6.788;2023-09-30T01:56:55;12.20;99.90
41928;DHT22;27616;51.420;6.788;2023-09-30T01:59:20;12.30;99.90
41928;DHT22;27616;51.420;6.788;2023-09-30T02:01:46;12.30;99.90
41928;DHT22;27616;51.420;6.788;2023-09-30T02:04:12;12.20;99.90
41928;DHT22;27616;51.420;6.788;2023-09-30T02:06:43;12.20;99.90
41928;DHT22;27616;51.420;6.788;2023-09-30T02:09:09;12.20;99.90
41928;DHT22;27616;51.420;6.788;2023-09-30T02:11:35;12.10;99.90
41928;DHT22;27616;51.420;6.788;2023-09-30T02:14:02;12.10;99.90
41928;DHT22;27616;51.420;6.788;2023-09-30T02:16:28;12.00;99.90
41928;DHT22;27616;51.420;6.788;2023-09-30T02:18:55;12.00;99.90
41928;DHT22;27616;51.420;6.788;2023-09-30T02:21:21;12.10;99.90
41928;DHT22;27616;51.420;6.788;2023-09-30T02:23:49;12.00;99.90
41928;DHT22;27616;51.420;6.788;2023-09-30T02:26:16;12.00;99.90
41928;DHT22;27616;51.420;6.788;2023-09-30T02:28:43;11.90;99.90
41928;DHT22;27616;51.420;6.788;2023-09-30T02:31:08;11.90;99.90
41928;DHT22;27616;51.420;6.788;2023-09-30T02:33:34;11.90;99.90
41928;DHT22;27616;51.420;6.788;2023-09-30T02:36:07;12.00;99.90
41928;DHT22;27616;51.420;6.788;2023-09-30T02:38:34;12.00;99.90
41928;DHT22;27616;51.420;6.788;2023-09-30T02:41:02;12.00;99.90
41928;DHT22;27616;51.420;6.788;2023-09-30T02:43:28;11.90;99.90
41928;DHT22;27616;51.420;6.788;2023-09-30T02:45:55;11.90;99.90
41928;DHT22;27616;51.420;6.788;2023-09-30T02:48:20;11.90;99.90
41928;DHT22;27616;51.420;6.788;2023-09-30T02:50:46;11.90;99.90
41928;DHT22;27616;51.420;6.788;2023-09-30T02:53:13;11.90;99.90
41928;DHT22;27616;51.420;6.788;2023-09-30T02:55:39;11.90;99.90
41928;DHT22;27616;51.420;6.788;2023-09-30T02:58:05;11.90;99.90
41928;DHT22;27616;51.420;6.788;2023-09-30T03:00:30;11.90;99.90
41928;DHT22;27616;51.420;6.788;2023-09-30T03:03:00;11.90;99.90
41928;DHT22;27616;51.420;6.788;2023-09-30T03:05:27;11.90;99.90
41928;DHT22;27616;51.420;6.788;2023-09-30T03:07:55;12.00;99.90
41928;DHT22;27616;51.420;6.788;2023-09-30T03:10:21;12.00;99.90
41928;DHT22;27616;51.420;6.788;2023-09-30T03:12:50;12.10;99.90
41928;DHT22;27616;51.420;6.788;2023-09-30T03:15:16;11.90;99.90
41928;DHT22;27616;51.420;6.788;2023-09-30T03:17:42;11.90;99.90
41928;DHT22;27616;51.420;6.788;2023-09-30T03:20:09;11.90;99.90
41928;DHT22;27616;51.420;6.788;2023-09-30T03:22:41;11.90;99.90
41928;DHT22;27616;51.420;6.788;2023-09-30T03:25:09;11.90;99.90
41928;DHT22;27616;51.420;6.788;2023-09-30T03:27:35;11.80;99.90
41928;DHT22;27616;51.420;6.788;2023-09-30T03:30:04;11.70;99.90
41928;DHT22;27616;51.420;6.788;2023-09-30T03:32:31;11.60;99.90
41928;DHT22;27616;51.420;6.788;2023-09-30T03:34:59;11.60;99.90
41928;DHT22;27616;51.420;6.788;2023-09-30T03:37:26;11.70;99.90
41928;DHT22;27616;51.420;6.788;2023-09-30T03:39:55;11.70;99.90
41928;DHT22;27616;51.420;6.788;2023-09-30T03:42:21;11.70;99.90
41928;DHT22;27616;51.420;6.788;2023-09-30T03:44:47;11.60;99.90
41928;DHT22;27616;51.420;6.788;2023-09-30T03:47:18;11.60;99.90
41928;DHT22;27616;51.420;6.788;2023-09-30T03:49:44;11.60;99.90
41928;DHT22;27616;51.420;6.788;2023-09-30T03:52:11;11.60;99.90
41928;DHT22;27616;51.420;6.788;2023-09-30T03:54:37;11.60;99.90
41928;DHT22;27616;51.420;6.788;2023-09-30T03:57:03;11.70;99.90
41928;DHT22;27616;51.420;6.788;2023-09-30T03:59:29;11.70;99.90
41928;DHT22;27616;51.420;6.788;2023-09-30T04:01:55;11.70;99.90
41928;DHT22;27616;51.420;6.788;2023-09-30T04:04:23;11.70;99.90
41928;DHT22;27616;51.420;6.788;2023-09-30T04:06:49;11.70;99.90
41928;DHT22;27616;51.420;6.788;2023-09-30T04:09:17;11.70;99.90
41928;DHT22;27616;51.420;6.788;2023-09-30T04:11:42;11.70;99.90
41928;DHT22;27616;51.420;6.788;2023-09-30T04:14:09;11.80;99.90
41928;DHT22;27616;51.420;6.788;2023-09-30T04:16:35;11.70;99.90
41928;DHT22;27616;51.420;6.788;2023-09-30T04:19:02;11.70;99.90
41928;DHT22;27616;51.420;6.788;2023-09-30T04:21:28;11.70;99.90
41928;DHT22;27616;51.420;6.788;2023-09-30T04:23:55;11.70;99.90
41928;DHT22;27616;51.420;6.788;2023-09-30T04:26:21;11.70;99.90
41928;DHT22;27616;51.420;6.788;2023-09-30T04:28:47;11.60;99.90
41928;DHT22;27616;51.420;6.788;2023-09-30T04:31:13;11.60;99.90
41928;DHT22;27616;51.420;6.788;2023-09-30T04:33:38;11.60;99.90
41928;DHT22;27616;51.420;6.788;2023-09-30T04:36:06;11.60;99.90
41928;DHT22;27616;51.420;6.788;2023-09-30T04:38:34;11.60;99.90
41928;DHT22;27616;51.420;6.788;2023-09-30T04:41:00;11.50;99.90
41928;DHT22;27616;51.420;6.788;2023-09-30T04:43:26;11.60;99.90
41928;DHT22;27616;51.420;6.788;2023-09-30T04:45:54;11.70;99.90
41928;DHT22;27616;51.420;6.788;2023-09-30T04:48:23;11.60;99.90
41928;DHT22;27616;51.420;6.788;2023-09-30T04:50:49;11.70;99.90
41928;DHT22;27616;51.420;6.788;2023-09-30T04:53:15;11.70;99.90
41928;DHT22;27616;51.420;6.788;2023-09-30T04:55:43;11.70;99.90
41928;DHT22;27616;51.420;6.788;2023-09-30T04:58:08;11.70;99.90
41928;DHT22;27616;51.420;6.788;2023-09-30T05:00:34;11.70;99.90
41928;DHT22;27616;51.420;6.788;2023-09-30T05:03:00;11.70;99.90
41928;DHT22;27616;51.420;6.788;2023-09-30T05:05:26;11.70;99.90
41928;DHT22;27616;51.420;6.788;2023-09-30T05:07:52;11.70;99.90
41928;DHT22;27616;51.420;6.788;2023-09-30T05:10:18;11.70;99.90
41928;DHT22;27616;51.420;6.788;2023-09-30T05:12:44;11.70;99.90
41928;DHT22;27616;51.420;6.788;2023-09-30T05:15:14;11.70;99.90
41928;DHT22;27616;51.420;6.788;2023-09-30T05:17:41;11.60;99.90
41928;DHT22;27616;51.420;6.788;2023-09-30T05:20:10;11.60;99.90
41928;DHT22;27616;51.420;6.788;2023-09-30T05:22:38;11.50;99.90
41928;DHT22;27616;51.420;6.788;2023-09-30T05:25:04;11.50;99.90
41928;DHT22;27616;51.420;6.788;2023-09-30T05:27:30;11.50;99.90
41928;DHT22;27616;51.420;6.788;2023-09-30T05:29:56;11.50;99.90
41928;DHT22;27616;51.420;6.788;2023-09-30T05:32:22;11.50;99.90
41928;DHT22;27616;51.420;6.788;2023-09-30T05:34:47;11.50;99.90
41928;DHT22;27616;51.420;6.788;2023-09-30T05:37:13;11.50;99.90
41928;DHT22;27616;51.420;6.788;2023-09-30T05:39:39;11.40;99.90
41928;DHT22;27616;51.420;6.788;2023-09-30T05:42:05;11.40;99.90
41928;DHT22;27616;51.420;6.788;2023-09-30T05:44:32;11.40;99.90
41928;DHT22;27616;51.420;6.788;2023-09-30T05:46:58;11.40;99.90
41928;DHT22;27616;51.420;6.788;2023-09-30T05:49:25;11.40;99.90
41928;DHT22;27616;51.420;6.788;2023-09-30T05:51:51;11.40;99.90
41928;DHT22;27616;51.420;6.788;2023-09-30T05:54:17;11.40;99.90
41928;DHT22;27616;51.420;6.788;2023-09-30T05:56:42;11.40;99.90
41928;DHT22;27616;51.420;6.788;2023-09-30T05:59:09;11.40;99.90
41928;DHT22;27616;51.420;6.788;2023-09-30T06:01:35;11.50;99.90
41928;DHT22;27616;51.420;6.788;2023-09-30T06:04:01;11.50;99.90
41928;DHT22;27616;51.420;6.788;2023-09-30T06:06:27;11.50;99.90
41928;DHT22;27616;51.420;6.788;2023-09-30T06:08:57;11.50;99.90
41928;DHT22;27616;51.420;6.788;2023-09-30T06:11:25;11.50;99.90
41928;DHT22;27616;51.420;6.788;2023-09-30T06:13:54;11.50;99.90
41928;DHT22;27616;51.420;6.788;2023-09-30T06:16:20;11.50;99.90
41928;DHT22;27616;51.420;6.788;2023-09-30T06:18:46;11.60;99.90
41928;DHT22;27616;51.420;6.788;2023-09-30T06:21:13;11.60;99.90
41928;DHT22;27616;51.420;6.788;2023-09-30T06:23:40;11.60;99.90
41928;DHT22;27616;51.420;6.788;2023-09-30T06:26:06;11.60;99.90
41928;DHT22;27616;51.420;6.788;2023-09-30T06:28:31;11.70;99.90
41928;DHT22;27616;51.420;6.788;2023-09-30T06:30:59;11.70;99.90
41928;DHT22;27616;51.420;6.788;2023-09-30T06:33:25;11.70;99.90
41928;DHT22;27616;51.420;6.788;2023-09-30T06:35:54;11.80;99.90
41928;DHT22;27616;51.420;6.788;2023-09-30T06:38:20;11.90;99.90
41928;DHT22;27616;51.420;6.788;2023-09-30T06:40:47;11.90;99.90
41928;DHT22;27616;51.420;6.788;2023-09-30T06:43:15;11.90;99.90
41928;DHT22;27616;51.420;6.788;2023-09-30T06:45:42;11.90;99.90
41928;DHT22;27616;51.420;6.788;2023-09-30T06:48:09;12.00;99.90
41928;DHT22;27616;51.420;6.788;2023-09-30T06:50:49;12.00;99.90
41928;DHT22;27616;51.420;6.788;2023-09-30T06:53:18;12.10;99.90
41928;DHT22;27616;51.420;6.788;2023-09-30T06:55:45;12.20;99.90
41928;DHT22;27616;51.420;6.788;2023-09-30T06:58:11;12.20;99.90
41928;DHT22;27616;51.420;6.788;2023-09-30T07:00:37;12.20;99.90
41928;DHT22;27616;51.420;6.788;2023-09-30T07:03:04;12.30;99.90
41928;DHT22;27616;51.420;6.788;2023-09-30T07:05:29;12.30;99.90
41928;DHT22;27616;51.420;6.788;2023-09-30T07:07:55;12.40;99.90
41928;DHT22;27616;51.420;6.788;2023-09-30T07:10:21;12.50;99.90
41928;DHT22;27616;51.420;6.788;2023-09-30T07:12:47;12.60;99.90
41928;DHT22;27616;51.420;6.788;2023-09-30T07:15:12;12.70;99.90
41928;DHT22;27616;51.420;6.788;2023-09-30T07:17:39;12.80;99.90
41928;DHT22;27616;51.420;6.788;2023-09-30T07:20:06;12.90;99.90
41928;DHT22;27616;51.420;6.788;2023-09-30T07:22:33;12.90;99.90
41928;DHT22;27616;51.420;6.788;2023-09-30T07:24:59;12.90;99.90
41928;DHT22;27616;51.420;6.788;2023-09-30T07:27:25;13.10;99.90
41928;DHT22;27616;51.420;6.788;2023-09-30T07:29:50;13.20;99.90
41928;DHT22;27616;51.420;6.788;2023-09-30T07:32:16;13.40;99.90
41928;DHT22;27616;51.420;6.788;2023-09-30T07:34:42;13.50;99.90
41928;DHT22;27616;51.420;6.788;2023-09-30T07:37:08;13.60;99.90
41928;DHT22;27616;51.420;6.788;2023-09-30T07:39:34;13.70;99.90
41928;DHT22;27616;51.420;6.788;2023-09-30T07:42:00;13.70;99.90
41928;DHT22;27616;51.420;6.788;2023-09-30T07:44:26;13.90;99.90
41928;DHT22;27616;51.420;6.788;2023-09-30T07:46:52;13.90;99.90
41928;DHT22;27616;51.420;6.788;2023-09-30T07:49:18;13.90;99.90
41928;DHT22;27616;51.420;6.788;2023-09-30T07:51:44;14.00;99.90
41928;DHT22;27616;51.420;6.788;2023-09-30T07:54:11;14.10;99.90
41928;DHT22;27616;51.420;6.788;2023-09-30T07:56:37;14.30;99.90
41928;DHT22;27616;51.420;6.788;2023-09-30T07:59:03;14.40;99.90
41928;DHT22;27616;51.420;6.788;2023-09-30T08:01:31;14.50;99.90
41928;DHT22;27616;51.420;6.788;2023-09-30T08:03:56;14.60;99.90
41928;DHT22;27616;51.420;6.788;2023-09-30T08:06:22;14.60;99.90
41928;DHT22;27616;51.420;6.788;2023-09-30T08:08:49;14.80;99.90
41928;DHT22;27616;51.420;6.788;2023-09-30T08:11:15;14.80;99.90
41928;DHT22;27616;51.420;6.788;2023-09-30T08:13:40;14.90;99.90
41928;DHT22;27616;51.420;6.788;2023-09-30T08:16:06;14.90;99.90
41928;DHT22;27616;51.420;6.788;2023-09-30T08:18:32;15.00;99.90
41928;DHT22;27616;51.420;6.788;2023-09-30T08:20:58;15.20;99.90
41928;DHT22;27616;51.420;6.788;2023-09-30T08:23:23;15.20;99.90
41928;DHT22;27616;51.420;6.788;2023-09-30T08:25:49;15.30;99.90
41928;DHT22;27616;51.420;6.788;2023-09-30T08:28:15;15.40;99.90
41928;DHT22;27616;51.420;6.788;2023-09-30T08:30:40;15.50;99.90
41928;DHT22;27616;51.420;6.788;2023-09-30T08:33:06;15.50;99.90
41928;DHT22;27616;51.420;6.788;2023-09-30T08:35:36;15.60;99.90
41928;DHT22;27616;51.420;6.788;2023-09-30T08:38:03;15.60;99.90
41928;DHT22;27616;51.420;6.788;2023-09-30T08:40:29;15.70;99.90
41928;DHT22;27616;51.420;6.788;2023-09-30T08:42:55;15.90;99.90
41928;DHT22;27616;51.420;6.788;2023-09-30T08:45:20;16.00;99.90
41928;DHT22;27616;51.420;6.788;2023-09-30T08:47:46;16.10;99.90
41928;DHT22;27616;51.420;6.788;2023-09-30T08:50:12;16.20;99.90
41928;DHT22;27616;51.420;6.788;2023-09-30T08:52:44;16.30;99.90
41928;DHT22;27616;51.420;6.788;2023-09-30T08:55:11;16.30;99.90
41928;DHT22;27616;51.420;6.788;2023-09-30T08:57:38;16.40;99.90
41928;DHT22;27616;51.420;6.788;2023-09-30T09:00:08;16.50;99.90
41928;DHT22;27616;51.420;6.788;2023-09-30T09:02:38;16.60;99.90
41928;DHT22;27616;51.420;6.788;2023-09-30T09:05:04;16.70;99.90
41928;DHT22;27616;51.420;6.788;2023-09-30T09:07:29;16.90;99.90
41928;DHT22;27616;51.420;6.788;2023-09-30T09:10:09;17.10;99.90
41928;DHT22;27616;51.420;6.788;2023-09-30T09:12:37;17.20;99.90
41928;DHT22;27616;51.420;6.788;2023-09-30T09:15:05;17.30;99.90
41928;DHT22;27616;51.420;6.788;2023-09-30T09:17:43;17.40;99.90
41928;DHT22;27616;51.420;6.788;2023-09-30T09:20:30;17.40;99.90
41928;DHT22;27616;51.420;6.788;2023-09-30T09:22:56;17.50;99.90
41928;DHT22;27616;51.420;6.788;2023-09-30T09:25:23;17.70;99.90
41928;DHT22;27616;51.420;6.788;2023-09-30T09:27:50;17.90;99.90
41928;DHT22;27616;51.420;6.788;2023-09-30T09:30:20;18.00;99.90
41928;DHT22;27616;51.420;6.788;2023-09-30T09:33:05;18.20;99.90
41928;DHT22;27616;51.420;6.788;2023-09-30T09:35:32;18.30;99.90
41928;DHT22;27616;51.420;6.788;2023-09-30T09:38:02;18.50;99.90
41928;DHT22;27616;51.420;6.788;2023-09-30T09:40:33;18.50;99.90
41928;DHT22;27616;51.420;6.788;2023-09-30T09:42:59;18.70;99.90
41928;DHT22;27616;51.420;6.788;2023-09-30T09:45:28;19.00;99.90
41928;DHT22;27616;51.420;6.788;2023-09-30T09:47:56;19.30;99.90
41928;DHT22;27616;51.420;6.788;2023-09-30T09:50:23;19.60;99.90
41928;DHT22;27616;51.420;6.788;2023-09-30T09:52:50;19.80;99.90
41928;DHT22;27616;51.420;6.788;2023-09-30T09:55:18;20.00;99.90
41928;DHT22;27616;51.420;6.788;2023-09-30T09:57:45;20.00;99.90
41928;DHT22;27616;51.420;6.788;2023-09-30T10:00:15;20.10;99.90
41928;DHT22;27616;51.420;6.788;2023-09-30T10:02:41;20.20;99.90
41928;DHT22;27616;51.420;6.788;2023-09-30T10:05:08;20.20;99.90
41928;DHT22;27616;51.420;6.788;2023-09-30T10:07:38;20.00;99.90
41928;DHT22;27616;51.420;6.788;2023-09-30T10:10:10;19.80;99.90
41928;DHT22;27616;51.420;6.788;2023-09-30T10:12:39;19.90;99.90
41928;DHT22;27616;51.420;6.788;2023-09-30T10:20:41;19.90;99.90
41928;DHT22;27616;51.420;6.788;2023-09-30T10:23:28;19.80;99.90
41928;DHT22;27616;51.420;6.788;2023-09-30T10:28:46;20.60;99.90
41928;DHT22;27616;51.420;6.788;2023-09-30T10:31:18;20.30;99.90
41928;DHT22;27616;51.420;6.788;2023-09-30T10:36:29;19.70;99.90
41928;DHT22;27616;51.420;6.788;2023-09-30T10:38:55;19.60;99.90
41928;DHT22;27616;51.420;6.788;2023-09-30T10:46:59;20.00;99.90
41928;DHT22;27616;51.420;6.788;2023-09-30T10:51:52;19.60;99.90
41928;DHT22;27616;51.420;6.788;2023-09-30T10:54:25;19.30;99.90
41928;DHT22;27616;51.420;6.788;2023-09-30T10:56:51;19.20;99.90
41928;DHT22;27616;51.420;6.788;2023-09-30T10:59:24;19.10;99.90
41928;DHT22;27616;51.420;6.788;2023-09-30T11:01:51;19.20;99.90
41928;DHT22;27616;51.420;6.788;2023-09-30T11:04:17;19.10;99.90
41928;DHT22;27616;51.420;6.788;2023-09-30T11:06:44;19.00;99.90
41928;DHT22;27616;51.420;6.788;2023-09-30T11:09:16;19.00;99.90
41928;DHT22;27616;51.420;6.788;2023-09-30T11:11:50;19.20;99.90
41928;DHT22;27616;51.420;6.788;2023-09-30T11:14:28;19.40;99.90
41928;DHT22;27616;51.420;6.788;2023-09-30T11:16:57;19.40;99.90
41928;DHT22;27616;51.420;6.788;2023-09-30T11:19:23;19.40;99.90
41928;DHT22;27616;51.420;6.788;2023-09-30T11:21:53;19.60;99.90
41928;DHT22;27616;51.420;6.788;2023-09-30T11:24:20;19.80;99.90
41928;DHT22;27616;51.420;6.788;2023-09-30T11:26:47;19.90;99.90
41928;DHT22;27616;51.420;6.788;2023-09-30T11:29:16;19.90;99.90
41928;DHT22;27616;51.420;6.788;2023-09-30T11:31:46;19.80;99.90
41928;DHT22;27616;51.420;6.788;2023-09-30T11:34:15;19.90;99.90
41928;DHT22;27616;51.420;6.788;2023-09-30T11:36:47;20.10;99.90
41928;DHT22;27616;51.420;6.788;2023-09-30T11:39:28;20.10;99.90
41928;DHT22;27616;51.420;6.788;2023-09-30T11:41:54;20.00;99.90
41928;DHT22;27616;51.420;6.788;2023-09-30T11:44:22;20.00;99.90
41928;DHT22;27616;51.420;6.788;2023-09-30T11:46:52;20.00;99.90
41928;DHT22;27616;51.420;6.788;2023-09-30T11:51:58;20.30;99.90
41928;DHT22;27616;51.420;6.788;2023-09-30T11:54:45;20.40;99.90
41928;DHT22;27616;51.420;6.788;2023-09-30T11:57:17;20.50;99.90
41928;DHT22;27616;51.420;6.788;2023-09-30T11:59:47;20.30;99.90
41928;DHT22;27616;51.420;6.788;2023-09-30T12:02:14;20.20;99.90
41928;DHT22;27616;51.420;6.788;2023-09-30T12:04:41;20.10;99.90
41928;DHT22;27616;51.420;6.788;2023-09-30T12:07:07;20.10;99.90
41928;DHT22;27616;51.420;6.788;2023-09-30T12:09:33;20.20;99.90
41928;DHT22;27616;51.420;6.788;2023-09-30T12:12:03;20.30;99.90
41928;DHT22;27616;51.420;6.788;2023-09-30T12:14:29;20.40;99.90
41928;DHT22;27616;51.420;6.788;2023-09-30T12:16:57;20.30;99.90
41928;DHT22;27616;51.420;6.788;2023-09-30T12:19:22;20.20;99.90
41928;DHT22;27616;51.420;6.788;2023-09-30T12:21:48;20.10;99.90
41928;DHT22;27616;51.420;6.788;2023-09-30T12:24:15;19.90;99.90
41928;DHT22;27616;51.420;6.788;2023-09-30T12:26:47;20.10;99.90
41928;DHT22;27616;51.420;6.788;2023-09-30T12:29:20;20.20;99.90
41928;DHT22;27616;51.420;6.788;2023-09-30T12:31:48;20.60;99.90
41928;DHT22;27616;51.420;6.788;2023-09-30T12:34:14;20.40;99.90
41928;DHT22;27616;51.420;6.788;2023-09-30T12:36:40;20.20;99.90
41928;DHT22;27616;51.420;6.788;2023-09-30T12:39:07;20.00;99.90
41928;DHT22;27616;51.420;6.788;2023-09-30T12:41:39;20.00;99.90
41928;DHT22;27616;51.420;6.788;2023-09-30T12:44:06;20.00;99.90
41928;DHT22;27616;51.420;6.788;2023-09-30T12:46:32;19.90;99.90
41928;DHT22;27616;51.420;6.788;2023-09-30T12:49:01;19.90;99.90
41928;DHT22;27616;51.420;6.788;2023-09-30T12:51:27;19.70;99.90
41928;DHT22;27616;51.420;6.788;2023-09-30T12:53:53;19.70;99.90
41928;DHT22;27616;51.420;6.788;2023-09-30T12:56:19;19.60;99.90
41928;DHT22;27616;51.420;6.788;2023-09-30T12:58:44;19.50;99.90
41928;DHT22;27616;51.420;6.788;2023-09-30T13:01:10;19.50;99.90
41928;DHT22;27616;51.420;6.788;2023-09-30T13:03:37;19.40;99.90
41928;DHT22;27616;51.420;6.788;2023-09-30T13:06:02;19.30;99.90
41928;DHT22;27616;51.420;6.788;2023-09-30T13:08:29;19.30;99.90
41928;DHT22;27616;51.420;6.788;2023-09-30T13:11:02;19.30;99.90
41928;DHT22;27616;51.420;6.788;2023-09-30T13:13:29;19.40;99.90
41928;DHT22;27616;51.420;6.788;2023-09-30T13:15:57;19.60;99.90
41928;DHT22;27616;51.420;6.788;2023-09-30T13:18:23;19.90;99.90
41928;DHT22;27616;51.420;6.788;2023-09-30T13:20:48;20.10;99.90
41928;DHT22;27616;51.420;6.788;2023-09-30T13:23:14;20.30;99.90
41928;DHT22;27616;51.420;6.788;2023-09-30T13:25:40;20.30;99.90
41928;DHT22;27616;51.420;6.788;2023-09-30T13:28:05;20.30;99.90
41928;DHT22;27616;51.420;6.788;2023-09-30T13:30:31;20.50;99.90
41928;DHT22;27616;51.420;6.788;2023-09-30T13:32:57;20.40;99.90
41928;DHT22;27616;51.420;6.788;2023-09-30T13:35:23;20.30;99.90
41928;DHT22;27616;51.420;6.788;2023-09-30T13:37:48;20.20;99.90
41928;DHT22;27616;51.420;6.788;2023-09-30T13:40:14;20.20;99.90
41928;DHT22;27616;51.420;6.788;2023-09-30T13:42:40;20.10;99.90
41928;DHT22;27616;51.420;6.788;2023-09-30T13:45:06;19.90;99.90
41928;DHT22;27616;51.420;6.788;2023-09-30T13:47:32;20.00;99.90
41928;DHT22;27616;51.420;6.788;2023-09-30T13:49:58;19.90;99.90
41928;DHT22;27616;51.420;6.788;2023-09-30T13:52:24;20.00;99.90
41928;DHT22;27616;51.420;6.788;2023-09-30T13:54:49;19.90;99.90
41928;DHT22;27616;51.420;6.788;2023-09-30T13:57:15;19.90;99.90
41928;DHT22;27616;51.420;6.788;2023-09-30T13:59:41;20.00;99.90
41928;DHT22;27616;51.420;6.788;2023-09-30T14:02:07;20.00;99.90
41928;DHT22;27616;51.420;6.788;2023-09-30T14:04:33;19.90;99.90
41928;DHT22;27616;51.420;6.788;2023-09-30T14:07:01;19.80;99.90
41928;DHT22;27616;51.420;6.788;2023-09-30T14:09:28;19.80;99.90
41928;DHT22;27616;51.420;6.788;2023-09-30T14:11:54;19.60;99.90
41928;DHT22;27616;51.420;6.788;2023-09-30T14:14:20;19.50;99.90
41928;DHT22;27616;51.420;6.788;2023-09-30T14:16:46;19.50;99.90
41928;DHT22;27616;51.420;6.788;2023-09-30T14:19:12;19.40;99.90
41928;DHT22;27616;51.420;6.788;2023-09-30T14:21:42;19.40;99.90
41928;DHT22;27616;51.420;6.788;2023-09-30T14:24:08;19.40;99.90
41928;DHT22;27616;51.420;6.788;2023-09-30T14:26:34;19.40;99.90
41928;DHT22;27616;51.420;6.788;2023-09-30T14:29:00;19.30;99.90
41928;DHT22;27616;51.420;6.788;2023-09-30T14:31:26;19.20;99.90
41928;DHT22;27616;51.420;6.788;2023-09-30T14:33:51;19.30;99.90
41928;DHT22;27616;51.420;6.788;2023-09-30T14:36:18;19.40;99.90
41928;DHT22;27616;51.420;6.788;2023-09-30T14:38:45;19.30;99.90
41928;DHT22;27616;51.420;6.788;2023-09-30T14:41:11;19.30;99.90
41928;DHT22;27616;51.420;6.788;2023-09-30T14:43:38;19.30;99.90
41928;DHT22;27616;51.420;6.788;2023-09-30T14:46:04;19.20;99.90
41928;DHT22;27616;51.420;6.788;2023-09-30T14:48:30;19.20;99.90
41928;DHT22;27616;51.420;6.788;2023-09-30T14:50:55;19.20;99.90
41928;DHT22;27616;51.420;6.788;2023-09-30T14:53:22;19.10;99.90
41928;DHT22;27616;51.420;6.788;2023-09-30T14:55:48;19.00;99.90
41928;DHT22;27616;51.420;6.788;2023-09-30T14:58:14;19.00;99.90
41928;DHT22;27616;51.420;6.788;2023-09-30T15:00:40;18.90;99.90
41928;DHT22;27616;51.420;6.788;2023-09-30T15:03:05;18.90;99.90
41928;DHT22;27616;51.420;6.788;2023-09-30T15:05:32;18.90;99.90
41928;DHT22;27616;51.420;6.788;2023-09-30T15:07:57;18.90;99.90
41928;DHT22;27616;51.420;6.788;2023-09-30T15:10:25;19.00;99.90
41928;DHT22;27616;51.420;6.788;2023-09-30T15:12:50;19.00;99.90
41928;DHT22;27616;51.420;6.788;2023-09-30T15:15:16;19.00;99.90
41928;DHT22;27616;51.420;6.788;2023-09-30T15:17:42;19.00;99.90
41928;DHT22;27616;51.420;6.788;2023-09-30T15:20:08;19.10;99.90
41928;DHT22;27616;51.420;6.788;2023-09-30T15:22:34;19.00;99.90
41928;DHT22;27616;51.420;6.788;2023-09-30T15:24:59;19.00;99.90
41928;DHT22;27616;51.420;6.788;2023-09-30T15:27:25;18.90;99.90
41928;DHT22;27616;51.420;6.788;2023-09-30T15:29:51;18.90;99.90
41928;DHT22;27616;51.420;6.788;2023-09-30T15:32:16;19.00;99.90
41928;DHT22;27616;51.420;6.788;2023-09-30T15:34:42;19.00;99.90
41928;DHT22;27616;51.420;6.788;2023-09-30T15:37:09;19.00;99.90
41928;DHT22;27616;51.420;6.788;2023-09-30T15:39:39;18.90;99.90
41928;DHT22;27616;51.420;6.788;2023-09-30T15:42:06;18.90;99.90
41928;DHT22;27616;51.420;6.788;2023-09-30T15:44:32;18.90;99.90
41928;DHT22;27616;51.420;6.788;2023-09-30T15:46:58;18.90;99.90
41928;DHT22;27616;51.420;6.788;2023-09-30T15:49:23;18.90;99.90
41928;DHT22;27616;51.420;6.788;2023-09-30T15:51:49;18.80;99.90